sensor_id;sensor_type;location;lat;lon;timestamp;pressure;altitude;pressure_sealevel;temperature;humidity
62038;BME280;47991;42.974;12.082;2023-01-26T00:01:26;97592.73;;;4.51;78.41
62038;BME280;47991;42.974;12.082;2023-01-26T00:03:56;97585.39;;;4.50;78.20
62038;BME280;47991;42.974;12.082;2023-01-26T00:06:23;97577.14;;;4.53;77.94
62038;BME280;47991;42.974;12.082;2023-01-26T00:08:52;97570.98;;;4.57;77.30
62038;BME280;47991;42.974;12.082;2023-01-26T00:11:21;97575.70;;;4.57;77.51
62038;BME280;47991;42.974;12.082;2023-01-26T00:13:50;97577.46;;;4.55;77.90
62038;BME280;47991;42.974;12.082;2023-01-26T00:16:20;97575.93;;;4.50;78.01
62038;BME280;47991;42.974;12.082;2023-01-26T00:18:47;97573.13;;;4.51;77.56
62038;BME280;47991;42.974;12.082;2023-01-26T00:21:16;97567.88;;;4.50;77.21
62038;BME280;47991;42.974;12.082;2023-01-26T00:23:43;97567.20;;;4.46;77.68
62038;BME280;47991;42.974;12.082;2023-01-26T00:26:14;97560.22;;;4.45;77.02
62038;BME280;47991;42.974;12.082;2023-01-26T00:28:41;97554.44;;;4.45;76.58
62038;BME280;47991;42.974;12.082;2023-01-26T00:31:17;97553.73;;;4.46;76.37
62038;BME280;47991;42.974;12.082;2023-01-26T00:33:45;97555.66;;;4.45;75.98
62038;BME280;47991;42.974;12.082;2023-01-26T00:36:12;97550.92;;;4.45;75.67
62038;BME280;47991;42.974;12.082;2023-01-26T00:38:39;97551.63;;;4.45;75.31
62038;BME280;47991;42.974;12.082;2023-01-26T00:41:10;97545.54;;;4.41;75.19
62038;BME280;47991;42.974;12.082;2023-01-26T00:43:56;97545.40;;;4.36;74.54
62038;BME280;47991;42.974;12.082;2023-01-26T00:46:23;97544.39;;;4.30;74.87
62038;BME280;47991;42.974;12.082;2023-01-26T00:48:50;97539.86;;;4.27;74.78
62038;BME280;47991;42.974;12.082;2023-01-26T00:51:17;97539.18;;;4.25;75.03
62038;BME280;47991;42.974;12.082;2023-01-26T00:53:44;97532.20;;;4.22;75.49
62038;BME280;47991;42.974;12.082;2023-01-26T00:56:12;97537.14;;;4.17;75.19
62038;BME280;47991;42.974;12.082;2023-01-26T00:58:40;97534.00;;;4.15;74.78
62038;BME280;47991;42.974;12.082;2023-01-26T01:01:08;97531.41;;;4.09;74.87
62038;BME280;47991;42.974;12.082;2023-01-26T01:03:34;97530.06;;;4.04;74.85
62038;BME280;47991;42.974;12.082;2023-01-26T01:06:01;97525.70;;;4.00;74.64
62038;BME280;47991;42.974;12.082;2023-01-26T01:08:28;97520.81;;;3.99;74.87
62038;BME280;47991;42.974;12.082;2023-01-26T01:11:03;97518.02;;;3.97;74.81
62038;BME280;47991;42.974;12.082;2023-01-26T01:13:30;97515.08;;;3.92;74.46
62038;BME280;47991;42.974;12.082;2023-01-26T01:15:58;97512.81;;;3.89;74.28
62038;BME280;47991;42.974;12.082;2023-01-26T01:18:25;97509.50;;;3.88;73.75
62038;BME280;47991;42.974;12.082;2023-01-26T01:20:52;97501.82;;;3.87;73.85
62038;BME280;47991;42.974;12.082;2023-01-26T01:23:18;97504.80;;;3.86;73.78
62038;BME280;47991;42.974;12.082;2023-01-26T01:25:45;97503.06;;;3.83;73.69
62038;BME280;47991;42.974;12.082;2023-01-26T01:28:12;97496.60;;;3.81;73.48
62038;BME280;47991;42.974;12.082;2023-01-26T01:30:39;97492.77;;;3.80;73.37
62038;BME280;47991;42.974;12.082;2023-01-26T01:33:05;97493.48;;;3.79;73.35
62038;BME280;47991;42.974;12.082;2023-01-26T01:35:32;97494.38;;;3.75;73.22
62038;BME280;47991;42.974;12.082;2023-01-26T01:38:01;97492.81;;;3.73;73.10
62038;BME280;47991;42.974;12.082;2023-01-26T01:40:28;97496.31;;;3.70;73.13
62038;BME280;47991;42.974;12.082;2023-01-26T01:42:55;97494.44;;;3.65;73.16
62038;BME280;47991;42.974;12.082;2023-01-26T01:48:01;97493.23;;;3.60;73.42
62038;BME280;47991;42.974;12.082;2023-01-26T01:50:34;97492.88;;;3.60;73.29
62038;BME280;47991;42.974;12.082;2023-01-26T01:53:05;97496.02;;;3.60;73.28
62038;BME280;47991;42.974;12.082;2023-01-26T01:55:35;97499.35;;;3.58;73.30
62038;BME280;47991;42.974;12.082;2023-01-26T01:58:02;97497.98;;;3.52;73.21
62038;BME280;47991;42.974;12.082;2023-01-26T02:00:29;97497.81;;;3.52;73.33
62038;BME280;47991;42.974;12.082;2023-01-26T02:08:39;97487.70;;;3.47;73.24
62038;BME280;47991;42.974;12.082;2023-01-26T02:11:14;97492.08;;;3.43;73.49
62038;BME280;47991;42.974;12.082;2023-01-26T02:13:43;97492.97;;;3.40;73.57
62038;BME280;47991;42.974;12.082;2023-01-26T02:16:12;97489.14;;;3.36;73.70
62038;BME280;47991;42.974;12.082;2023-01-26T02:18:39;97484.41;;;3.39;73.62
62038;BME280;47991;42.974;12.082;2023-01-26T02:21:08;97481.61;;;3.39;73.66
62038;BME280;47991;42.974;12.082;2023-01-26T02:26:35;97466.26;;;3.34;73.79
62038;BME280;47991;42.974;12.082;2023-01-26T02:29:09;97464.52;;;3.34;73.79
62038;BME280;47991;42.974;12.082;2023-01-26T02:31:40;97465.58;;;3.30;73.66
62038;BME280;47991;42.974;12.082;2023-01-26T02:34:07;97464.90;;;3.28;73.66
62038;BME280;47991;42.974;12.082;2023-01-26T02:36:35;97461.04;;;3.29;73.49
62038;BME280;47991;42.974;12.082;2023-01-26T02:39:24;97458.25;;;3.28;73.61
62038;BME280;47991;42.974;12.082;2023-01-26T02:41:53;97460.87;;;3.29;73.64
62038;BME280;47991;42.974;12.082;2023-01-26T02:44:40;97457.73;;;3.31;73.54
62038;BME280;47991;42.974;12.082;2023-01-26T02:47:15;97453.69;;;3.34;73.46
62038;BME280;47991;42.974;12.082;2023-01-26T02:49:43;97452.80;;;3.37;73.42
62038;BME280;47991;42.974;12.082;2023-01-26T02:52:18;97454.73;;;3.33;73.62
62038;BME280;47991;42.974;12.082;2023-01-26T02:54:47;97444.49;;;3.21;73.85
62038;BME280;47991;42.974;12.082;2023-01-26T02:57:33;97440.82;;;3.20;73.56
62038;BME280;47991;42.974;12.082;2023-01-26T03:00:01;97440.32;;;3.16;73.48
62038;BME280;47991;42.974;12.082;2023-01-26T03:02:30;97433.16;;;3.14;73.49
62038;BME280;47991;42.974;12.082;2023-01-26T03:04:56;97426.35;;;3.13;73.43
62038;BME280;47991;42.974;12.082;2023-01-26T03:07:24;97425.18;;;3.00;73.97
62038;BME280;47991;42.974;12.082;2023-01-26T03:09:54;97415.79;;;2.90;74.11
62038;BME280;47991;42.974;12.082;2023-01-26T03:12:21;97412.32;;;2.84;73.75
62038;BME280;47991;42.974;12.082;2023-01-26T03:14:47;97414.44;;;2.77;73.76
62038;BME280;47991;42.974;12.082;2023-01-26T03:17:34;97408.21;;;2.59;73.74
62038;BME280;47991;42.974;12.082;2023-01-26T03:20:05;97404.05;;;2.48;73.93
62038;BME280;47991;42.974;12.082;2023-01-26T03:22:51;97397.09;;;2.33;74.36
62038;BME280;47991;42.974;12.082;2023-01-26T03:25:37;97395.02;;;2.31;74.45
62038;BME280;47991;42.974;12.082;2023-01-26T03:28:24;97389.07;;;2.33;74.56
62038;BME280;47991;42.974;12.082;2023-01-26T03:30:54;97384.35;;;2.39;74.56
62038;BME280;47991;42.974;12.082;2023-01-26T03:33:24;97375.45;;;2.43;74.99
62038;BME280;47991;42.974;12.082;2023-01-26T03:35:53;97373.91;;;2.28;75.53
62038;BME280;47991;42.974;12.082;2023-01-26T03:38:24;97371.82;;;2.22;75.64
62038;BME280;47991;42.974;12.082;2023-01-26T03:40:56;97370.11;;;2.10;76.33
62038;BME280;47991;42.974;12.082;2023-01-26T03:43:42;97366.09;;;2.07;75.44
62038;BME280;47991;42.974;12.082;2023-01-26T03:46:27;97365.05;;;2.04;75.77
62038;BME280;47991;42.974;12.082;2023-01-26T03:49:14;97360.36;;;1.95;75.20
62038;BME280;47991;42.974;12.082;2023-01-26T03:52:01;97356.35;;;1.91;75.24
62038;BME280;47991;42.974;12.082;2023-01-26T03:54:47;97351.64;;;1.95;75.33
62038;BME280;47991;42.974;12.082;2023-01-26T03:57:33;97348.30;;;2.01;75.25
62038;BME280;47991;42.974;12.082;2023-01-26T03:59:59;97347.62;;;2.06;75.18
62038;BME280;47991;42.974;12.082;2023-01-26T04:02:26;97343.25;;;2.12;75.17
62038;BME280;47991;42.974;12.082;2023-01-26T04:05:12;97344.46;;;2.14;75.45
62038;BME280;47991;42.974;12.082;2023-01-26T04:08:05;97344.11;;;2.19;75.30
62038;BME280;47991;42.974;12.082;2023-01-26T04:10:56;97339.23;;;2.19;75.34
62038;BME280;47991;42.974;12.082;2023-01-26T04:13:23;97336.41;;;2.26;75.02
62038;BME280;47991;42.974;12.082;2023-01-26T04:16:12;97335.00;;;2.29;74.79
62038;BME280;47991;42.974;12.082;2023-01-26T04:18:58;97330.31;;;2.25;74.73
62038;BME280;47991;42.974;12.082;2023-01-26T04:21:43;97325.63;;;2.14;74.51
62038;BME280;47991;42.974;12.082;2023-01-26T04:24:16;97323.71;;;2.10;74.65
62038;BME280;47991;42.974;12.082;2023-01-26T04:26:48;97323.73;;;2.12;74.75
62038;BME280;47991;42.974;12.082;2023-01-26T04:29:20;97317.09;;;2.11;74.74
62038;BME280;47991;42.974;12.082;2023-01-26T04:31:47;97314.48;;;2.08;74.83
62038;BME280;47991;42.974;12.082;2023-01-26T04:34:18;97310.46;;;2.06;75.13
62038;BME280;47991;42.974;12.082;2023-01-26T04:36:45;97302.13;;;1.95;75.21
62038;BME280;47991;42.974;12.082;2023-01-26T04:39:13;97303.33;;;1.97;75.20
62038;BME280;47991;42.974;12.082;2023-01-26T04:41:44;97302.48;;;2.00;75.55
62038;BME280;47991;42.974;12.082;2023-01-26T04:44:14;97303.17;;;2.02;75.56
62038;BME280;47991;42.974;12.082;2023-01-26T04:46:41;97303.69;;;2.02;75.54
62038;BME280;47991;42.974;12.082;2023-01-26T04:49:09;97302.82;;;1.99;75.48
62038;BME280;47991;42.974;12.082;2023-01-26T04:51:36;97299.67;;;2.00;75.34
62038;BME280;47991;42.974;12.082;2023-01-26T04:54:03;97298.63;;;2.01;75.19
62038;BME280;47991;42.974;12.082;2023-01-26T04:56:33;97297.77;;;1.94;74.70
62038;BME280;47991;42.974;12.082;2023-01-26T04:59:03;97292.73;;;1.82;74.84
62038;BME280;47991;42.974;12.082;2023-01-26T05:01:32;97295.52;;;1.76;74.96
62038;BME280;47991;42.974;12.082;2023-01-26T05:04:00;97289.27;;;1.68;75.19
62038;BME280;47991;42.974;12.082;2023-01-26T05:06:29;97289.09;;;1.63;75.02
62038;BME280;47991;42.974;12.082;2023-01-26T05:08:57;97286.32;;;1.57;75.20
62038;BME280;47991;42.974;12.082;2023-01-26T05:11:24;97284.92;;;1.56;75.11
62038;BME280;47991;42.974;12.082;2023-01-26T05:14:20;97286.67;;;1.55;75.31
62038;BME280;47991;42.974;12.082;2023-01-26T05:17:07;97281.97;;;1.53;75.51
62038;BME280;47991;42.974;12.082;2023-01-26T05:19:57;97281.79;;;1.47;75.37
62038;BME280;47991;42.974;12.082;2023-01-26T05:22:40;97277.78;;;1.35;75.49
62038;BME280;47991;42.974;12.082;2023-01-26T05:25:28;97280.56;;;1.26;75.93
62038;BME280;47991;42.974;12.082;2023-01-26T05:28:01;97279.88;;;1.29;76.27
62038;BME280;47991;42.974;12.082;2023-01-26T05:30:54;97281.44;;;1.41;76.13
62038;BME280;47991;42.974;12.082;2023-01-26T05:33:23;97285.45;;;1.53;76.02
62038;BME280;47991;42.974;12.082;2023-01-26T05:35:52;97287.53;;;1.53;76.12
62038;BME280;47991;42.974;12.082;2023-01-26T05:38:20;97292.23;;;1.58;76.09
62038;BME280;47991;42.974;12.082;2023-01-26T05:40:47;97293.80;;;1.66;76.09
62038;BME280;47991;42.974;12.082;2023-01-26T05:43:14;97294.48;;;1.75;76.54
62038;BME280;47991;42.974;12.082;2023-01-26T05:45:51;97293.79;;;1.81;76.17
62038;BME280;47991;42.974;12.082;2023-01-26T05:48:20;97294.48;;;1.85;76.22
62038;BME280;47991;42.974;12.082;2023-01-26T05:50:49;97293.08;;;1.86;76.00
62038;BME280;47991;42.974;12.082;2023-01-26T05:53:19;97295.88;;;1.87;76.07
62038;BME280;47991;42.974;12.082;2023-01-26T05:55:46;97302.13;;;1.90;75.78
62038;BME280;47991;42.974;12.082;2023-01-26T05:58:12;97302.67;;;1.81;75.65
62038;BME280;47991;42.974;12.082;2023-01-26T06:00:39;97296.75;;;1.76;75.73
62038;BME280;47991;42.974;12.082;2023-01-26T06:03:11;97294.14;;;1.72;75.70
62038;BME280;47991;42.974;12.082;2023-01-26T06:05:38;97293.63;;;1.70;75.74
62038;BME280;47991;42.974;12.082;2023-01-26T06:08:21;97289.27;;;1.69;76.41
62038;BME280;47991;42.974;12.082;2023-01-26T06:10:59;97287.35;;;1.72;76.34
62038;BME280;47991;42.974;12.082;2023-01-26T06:13:55;97289.27;;;1.72;76.31
62038;BME280;47991;42.974;12.082;2023-01-26T06:16:24;97288.38;;;1.75;77.09
62038;BME280;47991;42.974;12.082;2023-01-26T06:18:51;97289.25;;;1.79;76.88
62038;BME280;47991;42.974;12.082;2023-01-26T06:21:18;97292.21;;;1.83;76.59
62038;BME280;47991;42.974;12.082;2023-01-26T06:23:44;97292.73;;;1.86;76.71
62038;BME280;47991;42.974;12.082;2023-01-26T06:26:12;97288.02;;;1.90;77.30
62038;BME280;47991;42.974;12.082;2023-01-26T06:28:41;97290.30;;;1.87;77.96
62038;BME280;47991;42.974;12.082;2023-01-26T06:31:08;97290.64;;;1.83;78.80
62038;BME280;47991;42.974;12.082;2023-01-26T06:33:37;97286.98;;;1.82;78.72
62038;BME280;47991;42.974;12.082;2023-01-26T06:36:10;97291.70;;;1.79;78.90
62038;BME280;47991;42.974;12.082;2023-01-26T06:38:38;97290.30;;;1.76;79.37
62038;BME280;47991;42.974;12.082;2023-01-26T06:41:10;97287.16;;;1.77;79.03
62038;BME280;47991;42.974;12.082;2023-01-26T06:43:37;97286.29;;;1.81;78.65
62038;BME280;47991;42.974;12.082;2023-01-26T06:46:05;97289.24;;;1.84;79.37
62038;BME280;47991;42.974;12.082;2023-01-26T06:48:33;97294.30;;;1.85;79.08
62038;BME280;47991;42.974;12.082;2023-01-26T06:51:24;97289.94;;;1.87;79.58
62038;BME280;47991;42.974;12.082;2023-01-26T06:53:56;97283.31;;;1.90;78.67
62038;BME280;47991;42.974;12.082;2023-01-26T06:56:38;97282.61;;;1.93;79.18
62038;BME280;47991;42.974;12.082;2023-01-26T06:59:23;97281.20;;;1.97;79.45
62038;BME280;47991;42.974;12.082;2023-01-26T07:02:19;97281.72;;;2.01;79.01
62038;BME280;47991;42.974;12.082;2023-01-26T07:04:48;97282.07;;;2.05;79.10
62038;BME280;47991;42.974;12.082;2023-01-26T07:07:15;97283.61;;;2.07;79.09
62038;BME280;47991;42.974;12.082;2023-01-26T07:09:42;97287.45;;;2.08;79.23
62038;BME280;47991;42.974;12.082;2023-01-26T07:12:09;97285.37;;;2.09;79.46
62038;BME280;47991;42.974;12.082;2023-01-26T07:14:36;97287.98;;;2.10;79.24
62038;BME280;47991;42.974;12.082;2023-01-26T07:17:04;97286.05;;;2.11;79.07
62038;BME280;47991;42.974;12.082;2023-01-26T07:19:30;97286.75;;;2.15;79.11
62038;BME280;47991;42.974;12.082;2023-01-26T07:22:00;97282.89;;;2.21;79.00
62038;BME280;47991;42.974;12.082;2023-01-26T07:24:27;97284.80;;;2.26;78.77
62038;BME280;47991;42.974;12.082;2023-01-26T07:26:54;97285.30;;;2.29;78.75
62038;BME280;47991;42.974;12.082;2023-01-26T07:29:21;97280.41;;;2.30;78.14
62038;BME280;47991;42.974;12.082;2023-01-26T07:31:48;97278.15;;;2.27;77.91
62038;BME280;47991;42.974;12.082;2023-01-26T07:34:15;97276.24;;;2.23;77.87
62038;BME280;47991;42.974;12.082;2023-01-26T07:36:42;97275.39;;;2.23;77.54
62038;BME280;47991;42.974;12.082;2023-01-26T07:39:09;97274.88;;;2.18;77.39
62038;BME280;47991;42.974;12.082;2023-01-26T07:41:36;97273.52;;;2.09;77.43
62038;BME280;47991;42.974;12.082;2023-01-26T07:44:15;97270.04;;;1.97;77.30
62038;BME280;47991;42.974;12.082;2023-01-26T07:46:42;97267.96;;;1.94;77.65
62038;BME280;47991;42.974;12.082;2023-01-26T07:49:09;97267.96;;;1.96;77.51
62038;BME280;47991;42.974;12.082;2023-01-26T07:51:37;97266.39;;;2.00;77.55
62038;BME280;47991;42.974;12.082;2023-01-26T07:54:06;97265.50;;;2.02;77.51
62038;BME280;47991;42.974;12.082;2023-01-26T07:56:33;97262.52;;;2.09;77.81
62038;BME280;47991;42.974;12.082;2023-01-26T07:59:00;97269.12;;;2.18;77.77
62038;BME280;47991;42.974;12.082;2023-01-26T08:01:27;97271.37;;;2.22;77.73
62038;BME280;47991;42.974;12.082;2023-01-26T08:03:57;97270.49;;;2.25;77.70
62038;BME280;47991;42.974;12.082;2023-01-26T08:06:24;97272.40;;;2.27;77.53
62038;BME280;47991;42.974;12.082;2023-01-26T08:08:51;97277.80;;;2.25;77.60
62038;BME280;47991;42.974;12.082;2023-01-26T08:11:21;97271.34;;;2.31;77.89
62038;BME280;47991;42.974;12.082;2023-01-26T08:13:54;97268.14;;;2.45;77.80
62038;BME280;47991;42.974;12.082;2023-01-26T08:16:21;97265.95;;;2.66;77.66
62038;BME280;47991;42.974;12.082;2023-01-26T08:18:48;97269.00;;;2.84;77.28
62038;BME280;47991;42.974;12.082;2023-01-26T08:21:16;97271.17;;;2.99;77.13
62038;BME280;47991;42.974;12.082;2023-01-26T08:23:50;97266.18;;;3.14;77.15
62038;BME280;47991;42.974;12.082;2023-01-26T08:26:19;97263.62;;;3.29;76.55
62038;BME280;47991;42.974;12.082;2023-01-26T08:28:45;97267.55;;;3.42;76.10
62038;BME280;47991;42.974;12.082;2023-01-26T08:31:15;97268.00;;;3.51;76.14
62038;BME280;47991;42.974;12.082;2023-01-26T08:33:47;97267.86;;;3.67;76.02
62038;BME280;47991;42.974;12.082;2023-01-26T08:36:18;97270.05;;;3.74;75.52
62038;BME280;47991;42.974;12.082;2023-01-26T08:38:45;97271.48;;;3.72;75.65
62038;BME280;47991;42.974;12.082;2023-01-26T08:41:13;97272.33;;;3.74;76.17
62038;BME280;47991;42.974;12.082;2023-01-26T08:43:40;97268.94;;;3.83;76.35
62038;BME280;47991;42.974;12.082;2023-01-26T08:46:10;97270.48;;;3.85;76.33
62038;BME280;47991;42.974;12.082;2023-01-26T08:48:37;97273.55;;;3.93;76.41
62038;BME280;47991;42.974;12.082;2023-01-26T08:51:05;97274.29;;;4.07;76.55
62038;BME280;47991;42.974;12.082;2023-01-26T08:53:34;97267.88;;;4.17;76.51
62038;BME280;47991;42.974;12.082;2023-01-26T08:56:02;97267.61;;;4.25;76.17
62038;BME280;47991;42.974;12.082;2023-01-26T08:58:33;97265.80;;;4.31;75.40
62038;BME280;47991;42.974;12.082;2023-01-26T09:01:07;97269.21;;;4.39;75.83
62038;BME280;47991;42.974;12.082;2023-01-26T09:03:36;97260.55;;;4.44;75.31
62038;BME280;47991;42.974;12.082;2023-01-26T09:06:07;97261.27;;;4.44;75.58
62038;BME280;47991;42.974;12.082;2023-01-26T09:08:35;97259.48;;;4.47;75.52
62038;BME280;47991;42.974;12.082;2023-01-26T09:11:05;97258.08;;;4.47;75.48
62038;BME280;47991;42.974;12.082;2023-01-26T09:13:32;97257.59;;;4.45;75.16
62038;BME280;47991;42.974;12.082;2023-01-26T09:16:05;97256.91;;;4.43;75.06
62038;BME280;47991;42.974;12.082;2023-01-26T09:18:33;97252.33;;;4.45;75.60
62038;BME280;47991;42.974;12.082;2023-01-26T09:21:07;97250.53;;;4.48;74.98
62038;BME280;47991;42.974;12.082;2023-01-26T09:23:35;97252.10;;;4.50;74.82
62038;BME280;47991;42.974;12.082;2023-01-26T09:26:02;97255.55;;;4.53;74.75
62038;BME280;47991;42.974;12.082;2023-01-26T09:28:29;97258.66;;;4.56;74.41
62038;BME280;47991;42.974;12.082;2023-01-26T09:30:55;97262.37;;;4.54;74.10
62038;BME280;47991;42.974;12.082;2023-01-26T09:33:22;97262.36;;;4.54;74.28
62038;BME280;47991;42.974;12.082;2023-01-26T09:35:51;97265.34;;;4.55;74.45
62038;BME280;47991;42.974;12.082;2023-01-26T09:38:17;97259.02;;;4.56;74.31
62038;BME280;47991;42.974;12.082;2023-01-26T09:40:59;97251.11;;;4.58;75.09
62038;BME280;47991;42.974;12.082;2023-01-26T09:46:23;97243.45;;;4.81;75.08
62038;BME280;47991;42.974;12.082;2023-01-26T09:52:08;97243.42;;;5.19;74.26
62038;BME280;47991;42.974;12.082;2023-01-26T09:54:41;97242.92;;;5.29;72.97
62038;BME280;47991;42.974;12.082;2023-01-26T09:57:26;97244.04;;;5.47;72.67
62038;BME280;47991;42.974;12.082;2023-01-26T10:00:05;97242.91;;;5.72;72.43
62038;BME280;47991;42.974;12.082;2023-01-26T10:07:45;97232.28;;;5.68;71.78
62038;BME280;47991;42.974;12.082;2023-01-26T10:10:24;97225.55;;;5.61;70.63
62038;BME280;47991;42.974;12.082;2023-01-26T10:12:53;97221.43;;;5.56;69.22
62038;BME280;47991;42.974;12.082;2023-01-26T10:15:27;97222.05;;;5.62;70.35
62038;BME280;47991;42.974;12.082;2023-01-26T10:18:06;97218.77;;;5.78;70.23
62038;BME280;47991;42.974;12.082;2023-01-26T10:20:39;97215.48;;;5.96;70.84
62038;BME280;47991;42.974;12.082;2023-01-26T10:23:31;97210.15;;;6.09;70.85
62038;BME280;47991;42.974;12.082;2023-01-26T10:26:21;97212.21;;;6.21;70.26
62038;BME280;47991;42.974;12.082;2023-01-26T10:28:50;97209.08;;;6.37;69.95
62038;BME280;47991;42.974;12.082;2023-01-26T10:31:26;97202.74;;;6.46;69.03
62038;BME280;47991;42.974;12.082;2023-01-26T10:33:58;97200.91;;;6.50;69.47
62038;BME280;47991;42.974;12.082;2023-01-26T10:36:30;97195.73;;;6.92;69.92
62038;BME280;47991;42.974;12.082;2023-01-26T10:39:23;97187.41;;;7.10;68.58
62038;BME280;47991;42.974;12.082;2023-01-26T10:41:58;97186.40;;;6.94;67.84
62038;BME280;47991;42.974;12.082;2023-01-26T10:44:37;97184.47;;;6.94;68.96
62038;BME280;47991;42.974;12.082;2023-01-26T10:47:17;97181.82;;;6.79;67.72
62038;BME280;47991;42.974;12.082;2023-01-26T10:49:44;97177.10;;;6.78;68.61
62038;BME280;47991;42.974;12.082;2023-01-26T10:52:20;97172.91;;;6.77;67.98
62038;BME280;47991;42.974;12.082;2023-01-26T10:55:19;97174.79;;;6.79;67.93
62038;BME280;47991;42.974;12.082;2023-01-26T10:57:47;97178.04;;;6.68;67.42
62038;BME280;47991;42.974;12.082;2023-01-26T11:00:21;97174.25;;;6.64;67.65
62038;BME280;47991;42.974;12.082;2023-01-26T11:02:52;97170.34;;;6.74;67.66
62038;BME280;47991;42.974;12.082;2023-01-26T11:05:24;97168.01;;;6.91;67.60
62038;BME280;47991;42.974;12.082;2023-01-26T11:07:53;97159.50;;;7.17;67.25
62038;BME280;47991;42.974;12.082;2023-01-26T11:10:50;97154.81;;;7.28;65.51
62038;BME280;47991;42.974;12.082;2023-01-26T11:13:19;97146.52;;;7.44;65.72
62038;BME280;47991;42.974;12.082;2023-01-26T11:15:49;97139.48;;;7.63;65.45
62038;BME280;47991;42.974;12.082;2023-01-26T11:21:21;97133.46;;;7.84;64.98
62038;BME280;47991;42.974;12.082;2023-01-26T11:34:49;97119.94;;;7.03;63.41
62038;BME280;47991;42.974;12.082;2023-01-26T11:37:32;97112.63;;;6.93;63.31
62038;BME280;47991;42.974;12.082;2023-01-26T11:57:49;97081.67;;;6.42;64.29
62038;BME280;47991;42.974;12.082;2023-01-26T12:00:47;97079.23;;;6.49;64.14
62038;BME280;47991;42.974;12.082;2023-01-26T12:06:13;97070.10;;;6.41;63.51
62038;BME280;47991;42.974;12.082;2023-01-26T12:08:47;97066.32;;;6.45;64.36
62038;BME280;47991;42.974;12.082;2023-01-26T12:11:29;97066.96;;;6.48;64.29
62038;BME280;47991;42.974;12.082;2023-01-26T12:14:10;97056.05;;;6.41;63.66
62038;BME280;47991;42.974;12.082;2023-01-26T12:19:53;97056.14;;;6.60;64.46
62038;BME280;47991;42.974;12.082;2023-01-26T12:22:33;97056.98;;;6.54;63.48
62038;BME280;47991;42.974;12.082;2023-01-26T12:28:00;97047.64;;;6.56;63.11
62038;BME280;47991;42.974;12.082;2023-01-26T12:33:09;97037.20;;;6.59;63.30
62038;BME280;47991;42.974;12.082;2023-01-26T12:36:00;97034.02;;;6.75;62.77
62038;BME280;47991;42.974;12.082;2023-01-26T12:50:23;97021.63;;;6.92;62.59
62038;BME280;47991;42.974;12.082;2023-01-26T12:55:46;97021.02;;;6.88;62.23
62038;BME280;47991;42.974;12.082;2023-01-26T12:58:23;97013.68;;;6.86;62.14
62038;BME280;47991;42.974;12.082;2023-01-26T13:01:04;97012.09;;;6.87;62.94
62038;BME280;47991;42.974;12.082;2023-01-26T13:03:56;97002.05;;;6.87;62.25
62038;BME280;47991;42.974;12.082;2023-01-26T13:06:26;96999.23;;;6.88;62.27
62038;BME280;47991;42.974;12.082;2023-01-26T13:11:50;97001.85;;;6.75;62.65
62038;BME280;47991;42.974;12.082;2023-01-26T13:17:50;96998.45;;;6.71;62.59
62038;BME280;47991;42.974;12.082;2023-01-26T13:22:36;97001.64;;;6.62;62.93
62038;BME280;47991;42.974;12.082;2023-01-26T13:25:31;97001.08;;;6.57;62.48
62038;BME280;47991;42.974;12.082;2023-01-26T13:28:00;96999.21;;;6.54;62.55
62038;BME280;47991;42.974;12.082;2023-01-26T13:30:32;96999.55;;;6.55;62.85
62038;BME280;47991;42.974;12.082;2023-01-26T13:33:12;96999.02;;;6.55;63.16
62038;BME280;47991;42.974;12.082;2023-01-26T13:35:43;97000.33;;;6.44;62.38
62038;BME280;47991;42.974;12.082;2023-01-26T13:40:50;97002.43;;;6.38;62.91
62038;BME280;47991;42.974;12.082;2023-01-26T13:43:51;96999.66;;;6.36;63.06
62038;BME280;47991;42.974;12.082;2023-01-26T13:46:39;96999.86;;;6.19;63.01
62038;BME280;47991;42.974;12.082;2023-01-26T13:49:41;96998.56;;;6.15;63.05
62038;BME280;47991;42.974;12.082;2023-01-26T13:52:25;96997.68;;;6.15;63.68
62038;BME280;47991;42.974;12.082;2023-01-26T13:54:55;97001.45;;;6.20;63.45
62038;BME280;47991;42.974;12.082;2023-01-26T13:57:28;96999.91;;;6.25;64.12
62038;BME280;47991;42.974;12.082;2023-01-26T13:59:58;97001.00;;;6.24;64.15
62038;BME280;47991;42.974;12.082;2023-01-26T14:02:31;97002.80;;;6.29;64.44
62038;BME280;47991;42.974;12.082;2023-01-26T14:05:00;97000.98;;;6.32;64.04
62038;BME280;47991;42.974;12.082;2023-01-26T14:07:43;97003.86;;;6.21;63.71
62038;BME280;47991;42.974;12.082;2023-01-26T14:10:17;97002.33;;;6.19;63.82
62038;BME280;47991;42.974;12.082;2023-01-26T14:12:49;97002.83;;;6.13;64.06
62038;BME280;47991;42.974;12.082;2023-01-26T14:15:28;97003.82;;;6.15;64.07
62038;BME280;47991;42.974;12.082;2023-01-26T14:17:58;97003.98;;;6.08;64.31
62038;BME280;47991;42.974;12.082;2023-01-26T14:20:30;97005.23;;;6.08;64.20
62038;BME280;47991;42.974;12.082;2023-01-26T14:25:42;96997.16;;;5.99;64.84
62038;BME280;47991;42.974;12.082;2023-01-26T14:28:16;96999.20;;;5.85;64.69
62038;BME280;47991;42.974;12.082;2023-01-26T14:30:54;96989.89;;;5.86;64.77
62038;BME280;47991;42.974;12.082;2023-01-26T14:33:26;96990.70;;;5.72;64.73
62038;BME280;47991;42.974;12.082;2023-01-26T14:36:01;96991.02;;;5.73;65.55
62038;BME280;47991;42.974;12.082;2023-01-26T14:38:39;96985.33;;;5.70;65.10
62038;BME280;47991;42.974;12.082;2023-01-26T14:41:24;96982.63;;;5.64;65.29
62038;BME280;47991;42.974;12.082;2023-01-26T14:43:57;96993.18;;;5.55;65.06
62038;BME280;47991;42.974;12.082;2023-01-26T14:49:13;96998.50;;;5.52;65.52
62038;BME280;47991;42.974;12.082;2023-01-26T14:51:56;97001.78;;;5.46;65.44
62038;BME280;47991;42.974;12.082;2023-01-26T14:54:28;97000.75;;;5.45;65.03
62038;BME280;47991;42.974;12.082;2023-01-26T14:56:58;96998.17;;;5.43;65.42
62038;BME280;47991;42.974;12.082;2023-01-26T14:59:37;97003.53;;;5.46;64.93
62038;BME280;47991;42.974;12.082;2023-01-26T15:02:17;97004.51;;;5.41;65.01
62038;BME280;47991;42.974;12.082;2023-01-26T15:07:35;96996.04;;;5.52;64.67
62038;BME280;47991;42.974;12.082;2023-01-26T15:15:30;96996.09;;;5.58;64.82